sensor_id;sensor_type;location;lat;lon;timestamp;pressure;altitude;pressure_sealevel;temperature;humidity
56632;BME280;42503;39.928;-75.152;2022-09-17T00:01:01;101999.88;;;27.27;35.57
56632;BME280;42503;39.928;-75.152;2022-09-17T00:03:07;102008.28;;;27.27;35.40
56632;BME280;42503;39.928;-75.152;2022-09-17T00:05:09;101996.25;;;27.21;35.21
56632;BME280;42503;39.928;-75.152;2022-09-17T00:07:11;102005.47;;;27.27;35.47
56632;BME280;42503;39.928;-75.152;2022-09-17T00:09:18;101999.63;;;27.23;35.13
56632;BME280;42503;39.928;-75.152;2022-09-17T00:11:32;102009.19;;;27.22;35.35
56632;BME280;42503;39.928;-75.152;2022-09-17T00:13:38;102009.19;;;27.22;35.24
56632;BME280;42503;39.928;-75.152;2022-09-17T00:15:44;102018.16;;;27.24;35.24
56632;BME280;42503;39.928;-75.152;2022-09-17T00:17:45;102012.84;;;27.23;35.11
56632;BME280;42503;39.928;-75.152;2022-09-17T00:19:46;102014.81;;;27.22;35.59
56632;BME280;42503;39.928;-75.152;2022-09-17T00:21:50;101998.91;;;27.13;35.13
56632;BME280;42503;39.928;-75.152;2022-09-17T00:24:03;102030.84;;;27.22;34.95
56632;BME280;42503;39.928;-75.152;2022-09-17T00:26:23;102014.31;;;27.15;34.90
56632;BME280;42503;39.928;-75.152;2022-09-17T00:28:25;102025.56;;;27.15;35.21
56632;BME280;42503;39.928;-75.152;2022-09-17T00:30:26;102031.41;;;27.19;35.27
56632;BME280;42503;39.928;-75.152;2022-09-17T00:32:28;102039.03;;;27.18;35.52
56632;BME280;42503;39.928;-75.152;2022-09-17T00:34:29;102040.16;;;27.17;35.47
56632;BME280;42503;39.928;-75.152;2022-09-17T00:36:34;102030.03;;;27.16;35.19
56632;BME280;42503;39.928;-75.152;2022-09-17T00:38:36;102038.47;;;27.16;35.30
56632;BME280;42503;39.928;-75.152;2022-09-17T00:40:40;102037.63;;;27.16;35.45
56632;BME280;42503;39.928;-75.152;2022-09-17T00:42:41;101948.34;;;26.54;35.60
56632;BME280;42503;39.928;-75.152;2022-09-17T00:44:48;102046.66;;;27.07;35.07
56632;BME280;42503;39.928;-75.152;2022-09-17T00:46:50;102054.25;;;27.12;35.40
56632;BME280;42503;39.928;-75.152;2022-09-17T00:48:57;102044.16;;;27.06;35.29
56632;BME280;42503;39.928;-75.152;2022-09-17T00:51:00;102063.81;;;27.11;35.33
56632;BME280;42503;39.928;-75.152;2022-09-17T00:53:05;102056.53;;;27.10;35.28
56632;BME280;42503;39.928;-75.152;2022-09-17T00:55:21;102063.28;;;27.09;35.31
56632;BME280;42503;39.928;-75.152;2022-09-17T00:57:26;102030.81;;;26.93;35.36
56632;BME280;42503;39.928;-75.152;2022-09-17T00:59:31;102066.63;;;27.11;35.70
56632;BME280;42503;39.928;-75.152;2022-09-17T01:01:33;102075.03;;;27.11;35.63
56632;BME280;42503;39.928;-75.152;2022-09-17T01:03:35;102070.56;;;27.10;35.43
56632;BME280;42503;39.928;-75.152;2022-09-17T01:08:29;102081.81;;;27.10;35.37
56632;BME280;42503;39.928;-75.152;2022-09-17T01:18:00;102089.09;;;27.11;35.61
56632;BME280;42503;39.928;-75.152;2022-09-17T01:21:00;102090.78;;;27.07;35.63
56632;BME280;42503;39.928;-75.152;2022-09-17T01:23:33;102082.50;;;26.92;35.91
56632;BME280;42503;39.928;-75.152;2022-09-17T01:25:55;102072.09;;;26.92;35.66
56632;BME280;42503;39.928;-75.152;2022-09-17T01:28:21;102100.34;;;27.06;35.95
56632;BME280;42503;39.928;-75.152;2022-09-17T01:32:58;102100.34;;;27.06;35.98
56632;BME280;42503;39.928;-75.152;2022-09-17T01:44:44;102082.41;;;27.02;35.86
56632;BME280;42503;39.928;-75.152;2022-09-17T01:47:00;102077.63;;;27.02;35.93
56632;BME280;42503;39.928;-75.152;2022-09-17T01:49:07;102079.91;;;27.00;36.12
56632;BME280;42503;39.928;-75.152;2022-09-17T01:51:14;102093.66;;;27.02;36.18
56632;BME280;42503;39.928;-75.152;2022-09-17T01:53:21;102069.09;;;26.83;35.92
56632;BME280;42503;39.928;-75.152;2022-09-17T01:55:28;102095.63;;;27.01;35.91
56632;BME280;42503;39.928;-75.152;2022-09-17T01:57:37;102067.41;;;26.82;36.11
56632;BME280;42503;39.928;-75.152;2022-09-17T02:02:15;102100.72;;;26.99;35.95
56632;BME280;42503;39.928;-75.152;2022-09-17T02:04:42;102109.41;;;26.98;36.10
56632;BME280;42503;39.928;-75.152;2022-09-17T02:06:51;102087.03;;;26.88;36.16
56632;BME280;42503;39.928;-75.152;2022-09-17T02:08:56;102103.25;;;26.96;36.54
56632;BME280;42503;39.928;-75.152;2022-09-17T02:11:06;102101.59;;;26.95;36.71
56632;BME280;42503;39.928;-75.152;2022-09-17T02:13:28;102098.78;;;26.95;36.43
56632;BME280;42503;39.928;-75.152;2022-09-17T02:15:38;102079.75;;;26.86;36.40
56632;BME280;42503;39.928;-75.152;2022-09-17T02:17:55;102094.84;;;26.96;36.79
56632;BME280;42503;39.928;-75.152;2022-09-17T02:19:59;102085.63;;;26.90;36.58
56632;BME280;42503;39.928;-75.152;2022-09-17T02:26:42;102117.56;;;26.99;36.78
56632;BME280;42503;39.928;-75.152;2022-09-17T02:28:58;102090.41;;;26.90;36.94
56632;BME280;42503;39.928;-75.152;2022-09-17T02:31:02;102106.56;;;27.03;37.02
56632;BME280;42503;39.928;-75.152;2022-09-17T02:33:06;102113.03;;;27.03;36.79
56632;BME280;42503;39.928;-75.152;2022-09-17T02:35:10;102108.25;;;27.04;36.72
56632;BME280;42503;39.928;-75.152;2022-09-17T02:37:13;102105.44;;;27.04;36.60
56632;BME280;42503;39.928;-75.152;2022-09-17T02:39:15;102115.53;;;27.05;36.75
56632;BME280;42503;39.928;-75.152;2022-09-17T02:41:23;102116.38;;;27.05;37.01
56632;BME280;42503;39.928;-75.152;2022-09-17T02:43:36;102104.84;;;27.07;36.85
56632;BME280;42503;39.928;-75.152;2022-09-17T02:48:12;102108.47;;;27.07;37.06
56632;BME280;42503;39.928;-75.152;2022-09-17T02:50:25;102098.09;;;27.08;36.91
56632;BME280;42503;39.928;-75.152;2022-09-17T02:53:04;102107.09;;;27.05;37.13
56632;BME280;42503;39.928;-75.152;2022-09-17T02:57:19;102108.75;;;27.11;36.93
56632;BME280;42503;39.928;-75.152;2022-09-17T02:59:36;102110.44;;;27.12;36.89
56632;BME280;42503;39.928;-75.152;2022-09-17T03:01:46;102078.56;;;26.93;37.26
56632;BME280;42503;39.928;-75.152;2022-09-17T03:03:52;102108.75;;;27.11;37.30
56632;BME280;42503;39.928;-75.152;2022-09-17T03:05:55;102105.94;;;27.11;37.24
56632;BME280;42503;39.928;-75.152;2022-09-17T03:07:58;102071.03;;;26.88;36.84
56632;BME280;42503;39.928;-75.152;2022-09-17T03:10:03;102095.88;;;27.05;37.10
56632;BME280;42503;39.928;-75.152;2022-09-17T03:12:06;102105.41;;;27.09;37.02
56632;BME280;42503;39.928;-75.152;2022-09-17T03:14:16;102107.94;;;27.10;37.03
56632;BME280;42503;39.928;-75.152;2022-09-17T03:16:20;102103.13;;;27.11;37.19
56632;BME280;42503;39.928;-75.152;2022-09-17T03:18:24;102109.31;;;27.13;37.24
56632;BME280;42503;39.928;-75.152;2022-09-17T03:20:26;102109.34;;;27.08;37.05
56632;BME280;42503;39.928;-75.152;2022-09-17T03:22:27;102104.81;;;27.12;36.97
56632;BME280;42503;39.928;-75.152;2022-09-17T03:24:28;102071.84;;;26.89;36.99
56632;BME280;42503;39.928;-75.152;2022-09-17T03:26:30;102115.81;;;27.08;37.30
56632;BME280;42503;39.928;-75.152;2022-09-17T03:28:35;102112.41;;;27.06;37.31
56632;BME280;42503;39.928;-75.152;2022-09-17T03:30:38;102109.09;;;27.04;37.49
56632;BME280;42503;39.928;-75.152;2022-09-17T03:32:39;102114.97;;;27.08;37.26
56632;BME280;42503;39.928;-75.152;2022-09-17T03:34:41;102110.44;;;27.07;37.28
56632;BME280;42503;39.928;-75.152;2022-09-17T03:36:42;102120.56;;;27.08;37.26
56632;BME280;42503;39.928;-75.152;2022-09-17T03:38:43;102123.13;;;27.09;37.46
56632;BME280;42503;39.928;-75.152;2022-09-17T03:41:02;102123.66;;;27.06;37.59
56632;BME280;42503;39.928;-75.152;2022-09-17T03:43:03;102127.91;;;27.09;37.51
56632;BME280;42503;39.928;-75.152;2022-09-17T03:45:06;102124.50;;;27.07;37.23
56632;BME280;42503;39.928;-75.152;2022-09-17T03:47:10;102131.81;;;27.08;37.21
56632;BME280;42503;39.928;-75.152;2022-09-17T03:49:12;102126.78;;;27.05;37.29
56632;BME280;42503;39.928;-75.152;2022-09-17T03:51:13;102135.72;;;27.07;37.49
56632;BME280;42503;39.928;-75.152;2022-09-17T03:53:15;102131.81;;;27.08;37.45
56632;BME280;42503;39.928;-75.152;2022-09-17T03:55:17;102129.00;;;27.08;37.45
56632;BME280;42503;39.928;-75.152;2022-09-17T03:57:18;102125.63;;;27.11;37.45
56632;BME280;42503;39.928;-75.152;2022-09-17T03:59:19;102129.56;;;27.10;37.33
56632;BME280;42503;39.928;-75.152;2022-09-17T04:01:21;102116.66;;;27.09;37.39
56632;BME280;42503;39.928;-75.152;2022-09-17T04:03:23;102123.94;;;27.10;37.59
56632;BME280;42503;39.928;-75.152;2022-09-17T04:05:24;102133.53;;;27.09;37.50
56632;BME280;42503;39.928;-75.152;2022-09-17T04:07:26;102120.59;;;27.03;37.69
56632;BME280;42503;39.928;-75.152;2022-09-17T04:09:27;102139.13;;;27.09;37.33
56632;BME280;42503;39.928;-75.152;2022-09-17T04:11:28;102130.72;;;27.09;37.66
56632;BME280;42503;39.928;-75.152;2022-09-17T04:13:30;102138.31;;;27.08;37.44
56632;BME280;42503;39.928;-75.152;2022-09-17T04:15:31;102093.50;;;26.88;37.36
56632;BME280;42503;39.928;-75.152;2022-09-17T04:17:32;102125.63;;;27.11;37.22
56632;BME280;42503;39.928;-75.152;2022-09-17T04:19:33;102125.63;;;27.11;37.65
56632;BME280;42503;39.928;-75.152;2022-09-17T04:21:35;102127.28;;;27.12;37.35
56632;BME280;42503;39.928;-75.152;2022-09-17T04:23:36;102130.41;;;27.10;37.31
56632;BME280;42503;39.928;-75.152;2022-09-17T04:25:40;102123.94;;;27.10;37.45
56632;BME280;42503;39.928;-75.152;2022-09-17T04:27:43;102124.47;;;27.12;37.40
56632;BME280;42503;39.928;-75.152;2022-09-17T04:29:44;102125.03;;;27.14;37.72
56632;BME280;42503;39.928;-75.152;2022-09-17T04:31:45;102114.09;;;27.07;37.53
56632;BME280;42503;39.928;-75.152;2022-09-17T04:33:47;102125.63;;;27.11;37.57
56632;BME280;42503;39.928;-75.152;2022-09-17T04:35:48;102103.22;;;27.01;37.64
56632;BME280;42503;39.928;-75.152;2022-09-17T04:37:54;102123.94;;;27.10;37.54
56632;BME280;42503;39.928;-75.152;2022-09-17T04:39:56;102124.50;;;27.07;37.49
56632;BME280;42503;39.928;-75.152;2022-09-17T04:41:57;102129.25;;;27.11;37.75
56632;BME280;42503;39.928;-75.152;2022-09-17T04:43:58;102123.38;;;27.08;37.59
56632;BME280;42503;39.928;-75.152;2022-09-17T04:46:02;102131.25;;;27.11;37.47
56632;BME280;42503;39.928;-75.152;2022-09-17T04:48:04;102138.00;;;27.10;38.00
56632;BME280;42503;39.928;-75.152;2022-09-17T04:50:05;102104.97;;;26.92;37.74
56632;BME280;42503;39.928;-75.152;2022-09-17T04:52:07;102143.63;;;27.10;37.81
56632;BME280;42503;39.928;-75.152;2022-09-17T04:54:08;102135.50;;;27.08;37.76
56632;BME280;42503;39.928;-75.152;2022-09-17T04:56:09;102139.38;;;27.07;38.01
56632;BME280;42503;39.928;-75.152;2022-09-17T04:58:10;102140.25;;;27.08;37.33
56632;BME280;42503;39.928;-75.152;2022-09-17T05:00:12;102114.19;;;26.97;37.73
56632;BME280;42503;39.928;-75.152;2022-09-17T05:02:15;102136.84;;;27.11;37.85
56632;BME280;42503;39.928;-75.152;2022-09-17T05:04:16;102136.31;;;27.09;37.99
56632;BME280;42503;39.928;-75.152;2022-09-17T05:06:17;102138.53;;;27.12;37.85
56632;BME280;42503;39.928;-75.152;2022-09-17T05:08:18;102145.00;;;27.13;37.51
56632;BME280;42503;39.928;-75.152;2022-09-17T05:10:28;102148.09;;;27.11;38.03
56632;BME280;42503;39.928;-75.152;2022-09-17T05:12:29;102143.31;;;27.11;37.73
56632;BME280;42503;39.928;-75.152;2022-09-17T05:14:33;102145.28;;;27.11;37.95
56632;BME280;42503;39.928;-75.152;2022-09-17T05:16:37;102145.88;;;27.08;37.95
56632;BME280;42503;39.928;-75.152;2022-09-17T05:18:39;102115.13;;;26.88;38.17
56632;BME280;42503;39.928;-75.152;2022-09-17T05:20:40;102160.47;;;27.10;37.69
56632;BME280;42503;39.928;-75.152;2022-09-17T05:22:47;102156.00;;;27.09;37.97
56632;BME280;42503;39.928;-75.152;2022-09-17T05:24:49;102165.53;;;27.08;38.05
56632;BME280;42503;39.928;-75.152;2022-09-17T05:26:50;102164.66;;;27.07;37.82
56632;BME280;42503;39.928;-75.152;2022-09-17T05:28:51;102165.53;;;27.08;38.01
56632;BME280;42503;39.928;-75.152;2022-09-17T05:30:53;102163.81;;;27.07;38.03
56632;BME280;42503;39.928;-75.152;2022-09-17T05:32:58;102174.22;;;27.06;38.30
56632;BME280;42503;39.928;-75.152;2022-09-17T05:35:00;102171.16;;;27.08;37.81
56632;BME280;42503;39.928;-75.152;2022-09-17T05:37:01;102163.59;;;27.08;37.72
56632;BME280;42503;39.928;-75.152;2022-09-17T05:39:03;102159.66;;;27.04;38.05
56632;BME280;42503;39.928;-75.152;2022-09-17T05:41:04;102141.22;;;26.88;38.18
56632;BME280;42503;39.928;-75.152;2022-09-17T05:43:06;102172.25;;;27.07;38.22
56632;BME280;42503;39.928;-75.152;2022-09-17T05:45:10;102166.09;;;27.05;38.27
56632;BME280;42503;39.928;-75.152;2022-09-17T05:47:11;102170.59;;;27.06;37.98
56632;BME280;42503;39.928;-75.152;2022-09-17T05:49:16;102123.59;;;26.82;38.22
56632;BME280;42503;39.928;-75.152;2022-09-17T05:51:17;102166.09;;;27.05;38.34
56632;BME280;42503;39.928;-75.152;2022-09-17T05:53:19;102149.34;;;26.95;38.02
56632;BME280;42503;39.928;-75.152;2022-09-17T05:55:21;102165.81;;;27.06;37.83
56632;BME280;42503;39.928;-75.152;2022-09-17T05:57:23;102161.06;;;27.02;37.93
56632;BME280;42503;39.928;-75.152;2022-09-17T05:59:25;102167.78;;;27.06;38.27
56632;BME280;42503;39.928;-75.152;2022-09-17T06:01:29;102158.56;;;27.00;38.06
56632;BME280;42503;39.928;-75.152;2022-09-17T06:03:30;102163.28;;;27.05;38.17
56632;BME280;42503;39.928;-75.152;2022-09-17T06:05:32;102168.06;;;27.09;37.90
56632;BME280;42503;39.928;-75.152;2022-09-17T06:07:37;102156.00;;;27.09;37.90
56632;BME280;42503;39.928;-75.152;2022-09-17T06:09:38;102150.91;;;27.06;38.08
56632;BME280;42503;39.928;-75.152;2022-09-17T06:11:42;102155.41;;;27.07;38.09
56632;BME280;42503;39.928;-75.152;2022-09-17T06:13:44;102159.03;;;27.07;38.19
56632;BME280;42503;39.928;-75.152;2022-09-17T06:15:52;102124.44;;;26.83;38.01
56632;BME280;42503;39.928;-75.152;2022-09-17T06:17:54;102155.41;;;27.07;37.91
56632;BME280;42503;39.928;-75.152;2022-09-17T06:19:55;102148.94;;;27.06;38.22
56632;BME280;42503;39.928;-75.152;2022-09-17T06:21:56;102149.25;;;27.05;38.12
56632;BME280;42503;39.928;-75.152;2022-09-17T06:23:59;102166.09;;;27.05;37.34
56632;BME280;42503;39.928;-75.152;2022-09-17T06:26:01;102157.13;;;27.03;37.79
56632;BME280;42503;39.928;-75.152;2022-09-17T06:28:03;102154.88;;;27.05;37.77
56632;BME280;42503;39.928;-75.152;2022-09-17T06:30:08;102163.00;;;27.06;37.67
56632;BME280;42503;39.928;-75.152;2022-09-17T06:32:09;102161.63;;;27.09;37.45
56632;BME280;42503;39.928;-75.152;2022-09-17T06:34:13;102153.78;;;27.01;37.76
56632;BME280;42503;39.928;-75.152;2022-09-17T06:36:14;102153.25;;;26.99;37.78
56632;BME280;42503;39.928;-75.152;2022-09-17T06:38:15;102161.63;;;27.09;37.79
56632;BME280;42503;39.928;-75.152;2022-09-17T06:40:20;102140.88;;;27.00;37.66
56632;BME280;42503;39.928;-75.152;2022-09-17T06:42:26;102167.22;;;27.09;37.81
56632;BME280;42503;39.928;-75.152;2022-09-17T06:44:30;102162.72;;;27.13;37.29
56632;BME280;42503;39.928;-75.152;2022-09-17T06:46:32;102175.63;;;27.14;37.53
56632;BME280;42503;39.928;-75.152;2022-09-17T06:48:35;102181.22;;;27.14;37.48
56632;BME280;42503;39.928;-75.152;2022-09-17T06:50:36;102174.47;;;27.15;37.50
56632;BME280;42503;39.928;-75.152;2022-09-17T06:52:37;102166.88;;;27.16;37.56
56632;BME280;42503;39.928;-75.152;2022-09-17T06:54:39;102170.25;;;27.18;37.19
56632;BME280;42503;39.928;-75.152;2022-09-17T06:56:45;102178.13;;;27.16;37.43
56632;BME280;42503;39.928;-75.152;2022-09-17T06:58:46;102174.47;;;27.15;37.54
56632;BME280;42503;39.928;-75.152;2022-09-17T07:00:51;102173.63;;;27.15;37.90
56632;BME280;42503;39.928;-75.152;2022-09-17T07:02:56;102163.81;;;27.12;37.98
56632;BME280;42503;39.928;-75.152;2022-09-17T07:04:58;102173.94;;;27.13;38.09
56632;BME280;42503;39.928;-75.152;2022-09-17T07:07:02;102173.94;;;27.13;37.83
56632;BME280;42503;39.928;-75.152;2022-09-17T07:09:05;102178.72;;;27.13;37.96
56632;BME280;42503;39.928;-75.152;2022-09-17T07:11:09;102170.56;;;27.11;38.02
56632;BME280;42503;39.928;-75.152;2022-09-17T07:13:11;102178.72;;;27.13;37.99
56632;BME280;42503;39.928;-75.152;2022-09-17T07:15:12;102180.41;;;27.14;38.19
56632;BME280;42503;39.928;-75.152;2022-09-17T07:17:16;102139.78;;;26.96;37.90
56632;BME280;42503;39.928;-75.152;2022-09-17T07:19:17;102162.97;;;27.11;37.91
56632;BME280;42503;39.928;-75.152;2022-09-17T07:21:18;102171.66;;;27.15;37.89
56632;BME280;42503;39.928;-75.152;2022-09-17T07:23:22;102179.56;;;27.13;37.72
56632;BME280;42503;39.928;-75.152;2022-09-17T07:25:24;102170.84;;;27.15;37.87
56632;BME280;42503;39.928;-75.152;2022-09-17T07:27:27;102172.84;;;27.09;37.75
56632;BME280;42503;39.928;-75.152;2022-09-17T07:29:29;102180.09;;;27.15;37.99
56632;BME280;42503;39.928;-75.152;2022-09-17T07:31:32;102177.28;;;27.15;37.99
56632;BME280;42503;39.928;-75.152;2022-09-17T07:33:34;102181.22;;;27.14;37.90
56632;BME280;42503;39.928;-75.152;2022-09-17T07:35:36;102176.44;;;27.15;37.87
56632;BME280;42503;39.928;-75.152;2022-09-17T07:37:43;102168.91;;;27.10;38.16
56632;BME280;42503;39.928;-75.152;2022-09-17T07:39:48;102180.41;;;27.14;38.07
56632;BME280;42503;39.928;-75.152;2022-09-17T07:41:49;102171.13;;;27.13;38.09
56632;BME280;42503;39.928;-75.152;2022-09-17T07:43:53;102180.94;;;27.16;38.10
56632;BME280;42503;39.928;-75.152;2022-09-17T07:45:59;102175.63;;;27.14;38.19
56632;BME280;42503;39.928;-75.152;2022-09-17T07:48:00;102176.44;;;27.15;38.23
56632;BME280;42503;39.928;-75.152;2022-09-17T07:50:05;102171.72;;;27.10;38.13
56632;BME280;42503;39.928;-75.152;2022-09-17T07:52:09;102176.75;;;27.13;38.14
56632;BME280;42503;39.928;-75.152;2022-09-17T07:54:13;102181.22;;;27.14;38.22
56632;BME280;42503;39.928;-75.152;2022-09-17T07:56:14;102166.41;;;27.08;37.99
56632;BME280;42503;39.928;-75.152;2022-09-17T07:58:19;102182.91;;;27.15;37.63
56632;BME280;42503;39.928;-75.152;2022-09-17T08:00:20;102181.22;;;27.14;37.77
56632;BME280;42503;39.928;-75.152;2022-09-17T08:02:22;102186.84;;;27.14;37.85
56632;BME280;42503;39.928;-75.152;2022-09-17T08:04:23;102186.03;;;27.14;38.14
56632;BME280;42503;39.928;-75.152;2022-09-17T08:06:26;102188.53;;;27.15;38.17
56632;BME280;42503;39.928;-75.152;2022-09-17T08:08:29;102186.84;;;27.14;37.79
56632;BME280;42503;39.928;-75.152;2022-09-17T08:10:31;102187.69;;;27.15;37.59
56632;BME280;42503;39.928;-75.152;2022-09-17T08:12:33;102189.97;;;27.13;38.43
56632;BME280;42503;39.928;-75.152;2022-09-17T08:14:37;102155.78;;;26.95;38.22
56632;BME280;42503;39.928;-75.152;2022-09-17T08:16:39;102182.38;;;27.08;38.15
56632;BME280;42503;39.928;-75.152;2022-09-17T08:18:42;102158.66;;;26.90;38.04
56632;BME280;42503;39.928;-75.152;2022-09-17T08:20:43;102181.81;;;27.11;38.03
56632;BME280;42503;39.928;-75.152;2022-09-17T08:22:44;102191.91;;;27.12;38.02
56632;BME280;42503;39.928;-75.152;2022-09-17T08:24:48;102182.66;;;27.11;38.24
56632;BME280;42503;39.928;-75.152;2022-09-17T08:26:50;102193.06;;;27.11;37.98
56632;BME280;42503;39.928;-75.152;2022-09-17T08:28:54;102190.25;;;27.11;38.30
56632;BME280;42503;39.928;-75.152;2022-09-17T08:31:04;102161.72;;;26.89;38.22
56632;BME280;42503;39.928;-75.152;2022-09-17T08:33:06;102190.25;;;27.06;38.01
56632;BME280;42503;39.928;-75.152;2022-09-17T08:35:07;102188.00;;;27.08;37.94
56632;BME280;42503;39.928;-75.152;2022-09-17T08:37:09;102195.88;;;27.06;38.10
56632;BME280;42503;39.928;-75.152;2022-09-17T08:39:10;102199.81;;;27.05;38.10
56632;BME280;42503;39.928;-75.152;2022-09-17T08:41:48;102193.69;;;26.98;38.51
56632;BME280;42503;39.928;-75.152;2022-09-17T08:46:11;102201.50;;;27.06;38.27
56632;BME280;42503;39.928;-75.152;2022-09-17T08:48:13;102184.72;;;26.96;38.17
56632;BME280;42503;39.928;-75.152;2022-09-17T08:50:31;102175.81;;;26.83;38.06
56632;BME280;42503;39.928;-75.152;2022-09-17T08:52:53;102205.75;;;27.03;38.21
56632;BME280;42503;39.928;-75.152;2022-09-17T09:00:13;102210.75;;;27.06;37.88
56632;BME280;42503;39.928;-75.152;2022-09-17T09:06:38;102216.69;;;27.05;38.13
56632;BME280;42503;39.928;-75.152;2022-09-17T09:09:03;102217.25;;;27.02;37.92
56632;BME280;42503;39.928;-75.152;2022-09-17T09:11:12;102216.41;;;27.01;38.03
56632;BME280;42503;39.928;-75.152;2022-09-17T09:13:22;102210.00;;;26.96;37.97
56632;BME280;42503;39.928;-75.152;2022-09-17T09:15:32;102213.91;;;27.00;38.11
56632;BME280;42503;39.928;-75.152;2022-09-17T09:17:47;102187.34;;;26.82;38.33
56632;BME280;42503;39.928;-75.152;2022-09-17T09:19:49;102229.94;;;26.99;38.20
56632;BME280;42503;39.928;-75.152;2022-09-17T09:24:22;102231.31;;;27.02;38.33
56632;BME280;42503;39.928;-75.152;2022-09-17T09:26:52;102237.22;;;27.00;37.96
56632;BME280;42503;39.928;-75.152;2022-09-17T09:29:04;102106.50;;;26.29;38.29
56632;BME280;42503;39.928;-75.152;2022-09-17T09:31:22;102234.09;;;27.02;37.83
56632;BME280;42503;39.928;-75.152;2022-09-17T09:33:35;102229.63;;;27.01;38.18
56632;BME280;42503;39.928;-75.152;2022-09-17T09:35:40;102237.47;;;27.04;37.88
56632;BME280;42503;39.928;-75.152;2022-09-17T09:37:49;102241.41;;;27.03;38.14
56632;BME280;42503;39.928;-75.152;2022-09-17T09:39:57;102232.44;;;27.01;38.05
56632;BME280;42503;39.928;-75.152;2022-09-17T09:42:10;102241.66;;;27.06;38.18
56632;BME280;42503;39.928;-75.152;2022-09-17T09:44:18;102228.00;;;26.95;37.98
56632;BME280;42503;39.928;-75.152;2022-09-17T09:51:30;102243.41;;;26.97;37.96
56632;BME280;42503;39.928;-75.152;2022-09-17T09:55:56;102245.06;;;26.98;38.31
56632;BME280;42503;39.928;-75.152;2022-09-17T10:00:34;102242.00;;;27.00;38.21
56632;BME280;42503;39.928;-75.152;2022-09-17T10:02:36;102242.28;;;26.98;38.43
56632;BME280;42503;39.928;-75.152;2022-09-17T10:04:37;102244.84;;;26.95;38.46
56632;BME280;42503;39.928;-75.152;2022-09-17T10:06:39;102231.41;;;26.86;38.26
56632;BME280;42503;39.928;-75.152;2022-09-17T10:11:15;102244.00;;;26.94;38.36
56632;BME280;42503;39.928;-75.152;2022-09-17T10:13:20;102256.09;;;26.95;38.73
56632;BME280;42503;39.928;-75.152;2022-09-17T10:15:26;102249.63;;;26.94;38.47
56632;BME280;42503;39.928;-75.152;2022-09-17T10:17:27;102242.06;;;26.90;38.41
56632;BME280;42503;39.928;-75.152;2022-09-17T10:19:29;102252.72;;;26.93;38.60
56632;BME280;42503;39.928;-75.152;2022-09-17T10:21:38;102251.56;;;26.94;38.54
56632;BME280;42503;39.928;-75.152;2022-09-17T10:23:42;102248.75;;;26.94;38.44
56632;BME280;42503;39.928;-75.152;2022-09-17T10:25:44;102258.91;;;26.95;38.70
56632;BME280;42503;39.928;-75.152;2022-09-17T10:27:48;102252.75;;;26.88;38.45
56632;BME280;42503;39.928;-75.152;2022-09-17T10:30:00;102260.00;;;26.94;38.66
56632;BME280;42503;39.928;-75.152;2022-09-17T10:32:05;102265.63;;;26.94;38.50
56632;BME280;42503;39.928;-75.152;2022-09-17T10:34:21;102253.31;;;26.90;38.71
56632;BME280;42503;39.928;-75.152;2022-09-17T10:36:44;102261.75;;;26.90;38.89
56632;BME280;42503;39.928;-75.152;2022-09-17T10:38:46;102263.44;;;26.85;38.91
56632;BME280;42503;39.928;-75.152;2022-09-17T10:40:47;102272.41;;;26.88;38.89
56632;BME280;42503;39.928;-75.152;2022-09-17T10:42:50;102267.34;;;26.84;38.77
56632;BME280;42503;39.928;-75.152;2022-09-17T10:45:24;102273.28;;;26.83;38.97
56632;BME280;42503;39.928;-75.152;2022-09-17T10:47:29;102276.88;;;26.89;38.84
56632;BME280;42503;39.928;-75.152;2022-09-17T10:49:47;102276.34;;;26.86;39.19
56632;BME280;42503;39.928;-75.152;2022-09-17T10:51:49;102281.97;;;26.86;38.96
56632;BME280;42503;39.928;-75.152;2022-09-17T10:54:00;102278.84;;;26.88;38.82
56632;BME280;42503;39.928;-75.152;2022-09-17T11:00:20;102279.13;;;26.92;38.98
56632;BME280;42503;39.928;-75.152;2022-09-17T11:09:20;102301.59;;;26.92;39.23
56632;BME280;42503;39.928;-75.152;2022-09-17T11:11:44;102296.31;;;26.85;39.33
56632;BME280;42503;39.928;-75.152;2022-09-17T11:25:45;102306.13;;;26.82;39.44
56632;BME280;42503;39.928;-75.152;2022-09-17T11:30:19;102307.28;;;26.81;39.33
56632;BME280;42503;39.928;-75.152;2022-09-17T11:34:45;102308.41;;;26.80;39.62
56632;BME280;42503;39.928;-75.152;2022-09-17T11:36:56;102314.03;;;26.80;39.13
56632;BME280;42503;39.928;-75.152;2022-09-17T11:39:15;102311.22;;;26.80;39.50
56632;BME280;42503;39.928;-75.152;2022-09-17T11:41:31;102313.47;;;26.78;39.46
56632;BME280;42503;39.928;-75.152;2022-09-17T11:43:46;102310.13;;;26.76;39.33
56632;BME280;42503;39.928;-75.152;2022-09-17T11:46:01;102283.22;;;26.60;39.56
56632;BME280;42503;39.928;-75.152;2022-09-17T11:48:15;102309.84;;;26.73;39.52
56632;BME280;42503;39.928;-75.152;2022-09-17T11:50:28;102323.03;;;26.77;39.52
56632;BME280;42503;39.928;-75.152;2022-09-17T11:52:44;102316.00;;;26.75;39.52
56632;BME280;42503;39.928;-75.152;2022-09-17T11:55:36;102320.50;;;26.76;39.37
56632;BME280;42503;39.928;-75.152;2022-09-17T11:57:38;102321.91;;;26.73;39.62
56632;BME280;42503;39.928;-75.152;2022-09-17T12:01:52;102318.25;;;26.78;39.45
56632;BME280;42503;39.928;-75.152;2022-09-17T12:04:01;102320.22;;;26.77;39.38
56632;BME280;42503;39.928;-75.152;2022-09-17T12:06:25;102281.00;;;26.52;39.60
56632;BME280;42503;39.928;-75.152;2022-09-17T12:13:45;102309.06;;;26.62;39.82
56632;BME280;42503;39.928;-75.152;2022-09-17T12:15:51;102292.22;;;26.52;39.82
56632;BME280;42503;39.928;-75.152;2022-09-17T12:20:43;102307.13;;;26.57;39.90